Time;durP1;ratioP1;P1;durP2;ratioP2;P2;SDS_P1;SDS_P2;PMS_P1;PMS_P2;Temp;Humidity;BMP_temperature;BMP_pressure;BME280_temperature;BME280_humidity;BME280_pressure;Samples;Min_cycle;Max_cycle;Signal;HPM_P1;HPM_P2
2023/08/05 00:00:23;;;;;;;0.08;0.08;;;;;;;17.07;66.25;100572.28;7357256;19;20013;-57
2023/08/05 00:02:49;;;;;;;0.00;0.00;;;;;;;17.01;66.60;100558.56;7353341;19;20007;-55
2023/08/05 00:05:14;;;;;;;0.10;0.10;;;;;;;17.01;66.34;100561.19;7355785;19;20011;-57
2023/08/05 00:07:39;;;;;;;0.03;0.03;;;;;;;16.95;66.33;100553.59;7354360;19;20042;-57
2023/08/05 00:10:05;;;;;;;0.00;0.00;;;;;;;16.90;66.64;100547.72;7356329;19;20029;-56
2023/08/05 00:12:31;;;;;;;0.10;0.10;;;;;;;16.83;67.49;100540.13;7352574;19;20025;-57
2023/08/05 00:14:56;;;;;;;0.00;0.00;;;;;;;16.67;67.02;100519.84;7350763;19;20122;-55
2023/08/05 00:17:22;;;;;;;0.08;0.08;;;;;;;16.62;67.67;100506.88;7354723;19;20014;-55
2023/08/05 00:19:47;;;;;;;0.00;0.00;;;;;;;16.66;67.26;100516.34;7354349;19;20102;-57
2023/08/05 00:22:13;;;;;;;0.00;0.00;;;;;;;16.60;67.38;100508.75;7353417;19;20034;-55
2023/08/05 00:24:39;;;;;;;0.00;0.00;;;;;;;16.54;67.63;100494.09;7354661;19;20688;-57
2023/08/05 00:27:05;;;;;;;0.03;0.03;;;;;;;16.47;67.50;100492.69;7352479;19;20849;-55
2023/08/05 00:29:31;;;;;;;0.00;0.00;;;;;;;16.40;68.51;100483.41;7349434;19;20093;-55
2023/08/05 00:31:56;;;;;;;0.00;0.00;;;;;;;16.32;68.17;100473.25;7349939;19;20112;-56
2023/08/05 00:34:21;;;;;;;0.00;0.00;;;;;;;16.24;69.56;100464.03;7353482;19;20030;-58
2023/08/05 00:36:47;;;;;;;0.08;0.08;;;;;;;16.15;70.10;100460.06;7350867;19;20415;-57
2023/08/05 00:39:13;;;;;;;0.00;0.00;;;;;;;16.08;70.95;100442.88;7352108;19;20549;-57
2023/08/05 00:41:39;;;;;;;0.00;0.00;;;;;;;16.01;71.92;100446.72;7354514;19;20467;-57
2023/08/05 00:44:04;;;;;;;0.05;0.05;;;;;;;15.82;71.10;100418.66;7347737;19;20042;-56
2023/08/05 00:46:29;;;;;;;0.10;0.10;;;;;;;15.89;72.25;100423.63;7354007;19;20007;-57
2023/08/05 00:48:55;;;;;;;0.10;0.10;;;;;;;15.82;71.52;100421.28;7347899;19;20487;-58
2023/08/05 00:51:21;;;;;;;0.08;0.08;;;;;;;15.75;73.26;100408.50;7353779;19;20058;-58
2023/08/05 00:53:48;;;;;;;0.00;0.00;;;;;;;15.68;73.54;100394.78;7351336;19;20737;-57
2023/08/05 00:56:15;;;;;;;0.00;0.00;;;;;;;15.60;72.76;100386.38;7347725;19;20021;-56
2023/08/05 00:58:42;;;;;;;0.08;0.08;;;;;;;15.55;73.46;100381.31;7353460;19;20007;-57
2023/08/05 01:01:08;;;;;;;0.05;0.05;;;;;;;15.48;73.17;100381.69;7353203;19;20019;-58
2023/08/05 01:03:33;;;;;;;0.10;0.10;;;;;;;15.41;74.32;100369.75;7348954;19;20014;-58
2023/08/05 01:06:00;;;;;;;0.00;0.00;;;;;;;15.34;73.69;100363.09;7354853;19;20633;-57
2023/08/05 01:08:26;;;;;;;0.10;0.10;;;;;;;15.28;72.19;100351.94;7347615;19;20045;-57
2023/08/05 01:10:52;;;;;;;0.00;0.00;;;;;;;15.21;73.21;100334.75;7357383;19;20003;-56
2023/08/05 01:13:18;;;;;;;0.10;0.10;;;;;;;15.15;73.74;100324.50;7354427;19;20027;-58
2023/08/05 01:15:44;;;;;;;0.10;0.10;;;;;;;15.12;74.68;100318.56;7356146;19;20014;-58
2023/08/05 01:18:10;;;;;;;0.10;0.10;;;;;;;15.07;73.44;100310.88;7354039;19;20007;-58
2023/08/05 01:20:45;;;;;;;0.10;0.10;;;;;;;15.06;71.51;100309.19;7353623;19;20010;-56
2023/08/05 01:23:18;;;;;;;0.10;0.10;;;;;;;15.01;71.40;100290.13;7351226;19;20820;-58
2023/08/05 01:25:45;;;;;;;0.00;0.00;;;;;;;14.98;74.35;100277.13;7353917;19;20027;-57
2023/08/05 01:28:11;;;;;;;0.10;0.10;;;;;;;14.96;73.19;100265.84;7351263;19;20105;-57
2023/08/05 01:30:37;;;;;;;0.10;0.10;;;;;;;14.93;74.29;100263.34;7354439;19;20433;-57
2023/08/05 01:33:03;;;;;;;0.00;0.00;;;;;;;14.91;73.72;100241.53;7353234;19;20011;-58
2023/08/05 01:35:28;;;;;;;0.00;0.00;;;;;;;14.90;72.77;100250.34;7353990;19;20023;-57
2023/08/05 01:37:54;;;;;;;0.00;0.00;;;;;;;14.87;73.12;100240.81;7349986;19;20025;-57
2023/08/05 01:40:19;;;;;;;0.03;0.03;;;;;;;14.84;73.55;100224.34;7354441;19;20017;-56
2023/08/05 01:42:45;;;;;;;0.10;0.10;;;;;;;14.82;73.95;100206.03;7353063;19;20011;-55
2023/08/05 01:45:10;;;;;;;0.00;0.00;;;;;;;14.81;73.37;100198.22;7354795;19;20021;-56
2023/08/05 01:47:36;;;;;;;0.10;0.10;;;;;;;14.77;74.90;100197.50;7354715;19;20378;-56
2023/08/05 01:50:01;;;;;;;0.00;0.00;;;;;;;14.79;73.54;100201.75;7355910;19;20078;-57
2023/08/05 01:52:26;;;;;;;0.10;0.10;;;;;;;14.77;73.67;100198.34;7352583;19;20022;-57
2023/08/05 01:54:52;;;;;;;0.10;0.10;;;;;;;14.75;74.29;100181.81;7352894;19;20007;-58
2023/08/05 01:57:17;;;;;;;0.10;0.10;;;;;;;14.73;74.14;100170.50;7349794;19;20003;-58
2023/08/05 01:59:43;;;;;;;0.00;0.00;;;;;;;14.70;75.56;100160.16;7346631;19;20005;-58
2023/08/05 02:02:08;;;;;;;0.10;0.10;;;;;;;14.69;74.44;100158.44;7357944;19;20500;-58
2023/08/05 02:04:34;;;;;;;0.00;0.00;;;;;;;14.68;74.70;100140.97;7357046;19;20018;-58
2023/08/05 02:06:59;;;;;;;0.00;0.00;;;;;;;14.67;74.76;100141.91;7356829;19;20019;-58
2023/08/05 02:09:25;;;;;;;0.10;0.10;;;;;;;14.61;74.38;100118.56;7359903;19;20082;-58
2023/08/05 02:11:50;;;;;;;0.00;0.00;;;;;;;14.67;74.50;100122.66;7351157;19;20014;-56
2023/08/05 02:14:16;;;;;;;0.10;0.10;;;;;;;14.64;76.20;100107.03;7359754;19;20619;-56
2023/08/05 02:16:41;;;;;;;0.05;0.05;;;;;;;14.64;76.36;100101.78;7354897;19;20704;-56
2023/08/05 02:19:07;;;;;;;0.00;0.00;;;;;;;14.64;75.09;100102.63;7359300;19;20010;-55
2023/08/05 02:21:32;;;;;;;0.05;0.05;;;;;;;14.65;74.94;100082.44;7358546;19;20021;-57
2023/08/05 02:23:58;;;;;;;0.00;0.00;;;;;;;14.63;75.14;100076.44;7359337;19;20010;-56
2023/08/05 02:26:23;;;;;;;0.00;0.00;;;;;;;14.61;75.35;100059.91;7359404;19;20082;-57
2023/08/05 02:28:49;;;;;;;0.10;0.10;;;;;;;14.54;75.53;100048.81;7354847;19;20006;-58
2023/08/05 02:31:14;;;;;;;0.00;0.00;;;;;;;14.54;76.04;100038.31;7354441;19;20014;-57
2023/08/05 02:33:40;;;;;;;0.10;0.10;;;;;;;14.49;76.64;100029.81;7358788;19;20014;-58
2023/08/05 02:36:06;;;;;;;0.10;0.10;;;;;;;14.52;76.66;100008.66;7358003;19;20034;-57
2023/08/05 02:38:32;;;;;;;0.10;0.10;;;;;;;14.51;76.59;100007.81;7360636;19;20011;-58
2023/08/05 02:40:58;;;;;;;0.10;0.10;;;;;;;14.51;76.83;99996.44;7354810;19;21153;-58
2023/08/05 02:43:24;;;;;;;0.00;0.00;;;;;;;14.50;77.01;99974.59;7362684;19;20010;-58
2023/08/05 02:45:56;;;;;;;0.10;0.10;;;;;;;14.53;76.33;99973.56;7353193;19;20047;-58
2023/08/05 02:48:25;;;;;;;0.05;0.05;;;;;;;14.52;74.91;99958.72;7356454;19;20034;-56
2023/08/05 02:50:52;;;;;;;0.05;0.05;;;;;;;14.50;76.61;99950.94;7359031;19;20015;-57
2023/08/05 02:53:18;;;;;;;0.10;0.10;;;;;;;14.51;75.61;99941.28;7359734;19;20010;-58
2023/08/05 02:55:44;;;;;;;0.05;0.05;;;;;;;14.51;76.83;99930.78;7356671;19;20021;-56
2023/08/05 02:58:09;;;;;;;0.00;0.00;;;;;;;14.52;76.31;99914.06;7359208;19;20011;-55
2023/08/05 03:00:35;;;;;;;0.00;0.00;;;;;;;14.51;76.67;99901.88;7360749;19;20991;-57
2023/08/05 03:03:00;;;;;;;0.10;0.10;;;;;;;14.50;74.49;99901.03;7354539;19;20002;-58
2023/08/05 03:05:26;;;;;;;0.00;0.00;;;;;;;14.50;76.27;99894.94;7349819;19;20031;-55
2023/08/05 03:07:51;;;;;;;0.00;0.00;;;;;;;14.47;76.40;99884.53;7357349;19;20015;-58
2023/08/05 03:10:17;;;;;;;0.00;0.00;;;;;;;14.50;77.38;99881.78;7358496;19;20129;-57
2023/08/05 03:12:42;;;;;;;0.00;0.00;;;;;;;14.50;76.76;99880.00;7350652;19;20011;-54
2023/08/05 03:15:08;;;;;;;0.00;0.00;;;;;;;14.50;77.52;99866.03;7357861;19;20011;-56
2023/08/05 03:17:34;;;;;;;0.10;0.10;;;;;;;14.54;76.73;99862.28;7357846;19;20014;-58
2023/08/05 03:20:03;;;;;;;0.10;0.10;;;;;;;14.53;75.89;99863.22;7334523;19;20010;-57
2023/08/05 03:22:29;;;;;;;0.10;0.10;;;;;;;14.57;77.41;99853.41;7351110;19;20082;-58
2023/08/05 03:24:54;;;;;;;0.10;0.10;;;;;;;14.61;76.16;99854.94;7356161;19;20845;-57
2023/08/05 03:27:19;;;;;;;0.10;0.10;;;;;;;14.60;76.11;99835.72;7354808;19;20031;-58
2023/08/05 03:29:46;;;;;;;0.10;0.10;;;;;;;14.60;76.97;99830.47;7356143;19;20471;-58
2023/08/05 03:32:12;;;;;;;0.10;0.10;;;;;;;14.61;76.75;99824.25;7354586;19;20052;-58
2023/08/05 03:34:37;;;;;;;0.10;0.10;;;;;;;14.63;76.80;99817.13;7350143;19;20070;-57
2023/08/05 03:37:03;;;;;;;0.10;0.10;;;;;;;14.65;76.62;99815.28;7354965;19;20036;-58
2023/08/05 03:39:29;;;;;;;0.00;0.00;;;;;;;14.66;77.07;99810.88;7354316;19;20010;-58
2023/08/05 03:41:55;;;;;;;0.00;0.00;;;;;;;14.66;76.36;99806.47;7358120;19;20510;-57
2023/08/05 03:44:20;;;;;;;0.00;0.00;;;;;;;14.66;76.39;99795.97;7348032;19;20014;-57
2023/08/05 03:46:45;;;;;;;0.05;0.05;;;;;;;14.33;76.82;99734.69;7354493;19;20021;-58
2023/08/05 03:49:11;;;;;;;0.00;0.00;;;;;;;14.68;77.08;99788.00;7346434;19;20010;-56
2023/08/05 03:51:36;;;;;;;0.10;0.10;;;;;;;14.69;77.20;99785.25;7352883;19;20030;-57
2023/08/05 03:54:02;;;;;;;0.00;0.00;;;;;;;14.69;76.74;99782.63;7355361;19;20010;-55
2023/08/05 03:56:28;;;;;;;0.10;0.10;;;;;;;14.72;77.15;99786.91;7352880;19;20013;-58
2023/08/05 03:58:54;;;;;;;0.00;0.00;;;;;;;14.72;76.59;99763.25;7356418;19;20010;-58
2023/08/05 04:01:22;;;;;;;0.10;0.10;;;;;;;14.60;76.46;99749.00;7353245;19;20018;-57
2023/08/05 04:03:49;;;;;;;0.10;0.10;;;;;;;14.73;76.10;99760.53;7352293;19;20723;-57
2023/08/05 04:06:15;;;;;;;0.10;0.10;;;;;;;14.69;76.96;99748.47;7350383;19;20023;-55
2023/08/05 04:08:41;;;;;;;0.10;0.10;;;;;;;14.68;77.47;99744.16;7355550;19;20006;-57
2023/08/05 04:11:06;;;;;;;0.05;0.05;;;;;;;14.68;77.34;99757.31;7353763;19;20138;-58
2023/08/05 04:13:33;;;;;;;0.00;0.00;;;;;;;14.66;77.00;99737.31;7355065;19;20032;-57
2023/08/05 04:16:03;;;;;;;0.10;0.10;;;;;;;14.57;76.85;99728.13;7355308;19;20014;-57
2023/08/05 04:18:29;;;;;;;0.10;0.10;;;;;;;14.66;77.05;99747.81;7351492;19;20453;-57
2023/08/05 04:20:56;;;;;;;0.00;0.00;;;;;;;14.59;76.66;99725.41;7350993;19;20002;-57
2023/08/05 04:23:23;;;;;;;0.10;0.10;;;;;;;14.66;76.85;99730.28;7346010;19;20363;-59
2023/08/05 04:25:49;;;;;;;0.00;0.00;;;;;;;14.66;77.18;99721.53;7351980;19;20025;-57
2023/08/05 04:28:15;;;;;;;0.03;0.03;;;;;;;14.53;77.36;99701.19;7351645;19;20015;-57
2023/08/05 04:30:40;;;;;;;0.10;0.10;;;;;;;14.67;77.19;99697.81;7353649;19;20018;-57
2023/08/05 04:33:07;;;;;;;0.08;0.08;;;;;;;14.68;76.89;99698.66;7354129;19;20010;-57
2023/08/05 04:35:33;;;;;;;0.10;0.10;;;;;;;14.68;76.46;99704.75;7352283;19;20002;-55
2023/08/05 04:37:58;;;;;;;0.10;0.10;;;;;;;14.69;77.02;99689.81;7355012;19;20114;-58
2023/08/05 04:40:24;;;;;;;0.10;0.10;;;;;;;14.67;77.60;99689.91;7354073;19;20014;-58
2023/08/05 04:42:49;;;;;;;0.10;0.10;;;;;;;14.66;77.54;99675.09;7347801;19;20021;-58
2023/08/05 04:45:15;;;;;;;0.00;0.00;;;;;;;14.67;78.07;99686.44;7353839;19;20568;-58
2023/08/05 04:47:41;;;;;;;0.10;0.10;;;;;;;14.68;77.13;99673.22;7353664;19;20126;-58
2023/08/05 04:50:06;;;;;;;0.08;0.08;;;;;;;14.61;76.46;99655.25;7352163;19;20041;-57
2023/08/05 04:52:32;;;;;;;0.00;0.00;;;;;;;14.72;76.51;99681.78;7351012;19;20011;-57
2023/08/05 04:55:07;;;;;;;0.00;0.00;;;;;;;14.75;76.08;99681.59;7352208;19;20596;-57
2023/08/05 04:57:33;;;;;;;0.00;0.00;;;;;;;14.71;77.52;99683.56;7351223;19;20010;-58
2023/08/05 04:59:58;;;;;;;0.00;0.00;;;;;;;14.70;76.74;99687.13;7354157;19;20041;-57
2023/08/05 05:02:24;;;;;;;0.10;0.10;;;;;;;14.65;77.39;99675.16;7352111;19;20689;-58
2023/08/05 05:04:49;;;;;;;0.05;0.05;;;;;;;14.67;77.00;99661.00;7349392;19;20024;-57
2023/08/05 05:07:14;;;;;;;0.10;0.10;;;;;;;14.71;77.18;99666.94;7352693;19;20015;-55
2023/08/05 05:09:40;;;;;;;0.10;0.10;;;;;;;14.72;77.15;99674.75;7348370;19;20761;-58
2023/08/05 05:12:05;;;;;;;0.00;0.00;;;;;;;14.73;76.90;99681.69;7352598;19;20623;-58
2023/08/05 05:14:32;;;;;;;0.00;0.00;;;;;;;14.71;76.96;99675.69;7351005;19;20128;-56
2023/08/05 05:16:58;;;;;;;0.00;0.00;;;;;;;14.69;77.44;99672.28;7353972;19;20999;-58
2023/08/05 05:19:23;;;;;;;0.00;0.00;;;;;;;14.68;77.50;99670.59;7348386;19;20086;-57
2023/08/05 05:21:48;;;;;;;0.10;0.10;;;;;;;14.69;77.68;99685.41;7351961;19;20015;-57
2023/08/05 05:24:15;;;;;;;0.00;0.00;;;;;;;14.67;77.45;99682.03;7347689;19;20446;-57
2023/08/05 05:26:40;;;;;;;0.10;0.10;;;;;;;14.65;77.55;99691.78;7350965;19;20025;-58
2023/08/05 05:29:05;;;;;;;0.00;0.00;;;;;;;14.62;77.90;99683.22;7352532;19;20015;-57
2023/08/05 05:31:31;;;;;;;0.08;0.08;;;;;;;14.66;77.84;99696.13;7348296;19;20828;-56
2023/08/05 05:33:56;;;;;;;0.10;0.10;;;;;;;14.63;77.48;99712.03;7351725;19;20015;-56
2023/08/05 05:36:22;;;;;;;0.00;0.00;;;;;;;14.64;77.53;99734.75;7358133;19;20036;-56
2023/08/05 05:38:47;;;;;;;0.00;0.00;;;;;;;14.63;77.69;99743.56;7357367;19;20561;-55
2023/08/05 05:41:13;;;;;;;0.00;0.00;;;;;;;14.60;77.46;99749.00;7358786;19;20050;-58
2023/08/05 05:43:38;;;;;;;0.10;0.10;;;;;;;14.55;78.22;99769.44;7356922;19;20018;-56
2023/08/05 05:46:04;;;;;;;0.10;0.10;;;;;;;14.57;77.68;99758.81;7352430;19;20045;-56
2023/08/05 05:48:29;;;;;;;0.00;0.00;;;;;;;14.54;78.54;99780.84;7354705;19;20121;-57
2023/08/05 05:50:55;;;;;;;0.00;0.00;;;;;;;14.41;78.35;99780.63;7359233;19;20018;-57
2023/08/05 05:53:21;;;;;;;0.03;0.03;;;;;;;14.50;78.16;99795.94;7356567;19;20039;-57
2023/08/05 05:55:53;;;;;;;0.00;0.00;;;;;;;14.50;78.36;99806.44;7358556;19;20101;-57
2023/08/05 05:58:18;;;;;;;0.00;0.00;;;;;;;14.46;78.54;99814.53;7355376;19;20796;-57
2023/08/05 06:00:44;;;;;;;0.00;0.00;;;;;;;14.44;79.07;99816.38;7362148;19;20018;-55
2023/08/05 06:03:09;;;;;;;0.10;0.10;;;;;;;14.41;78.81;99813.94;7353015;19;20044;-57
2023/08/05 06:05:35;;;;;;;0.10;0.10;;;;;;;14.41;79.16;99829.69;7360378;19;20014;-57
2023/08/05 06:08:00;;;;;;;0.10;0.10;;;;;;;14.40;79.23;99830.63;7357140;19;21064;-57
2023/08/05 06:10:25;;;;;;;0.00;0.00;;;;;;;14.38;78.91;99832.47;7361524;19;20010;-55
2023/08/05 06:12:51;;;;;;;0.00;0.00;;;;;;;14.37;79.11;99831.63;7337756;19;20026;-57
2023/08/05 06:15:16;;;;;;;0.00;0.00;;;;;;;14.36;79.24;99840.44;7355489;19;20014;-58
2023/08/05 06:17:42;;;;;;;0.10;0.10;;;;;;;14.37;79.64;99859.66;7356973;19;20470;-58
2023/08/05 06:20:08;;;;;;;0.08;0.08;;;;;;;14.35;79.68;99865.00;7333878;19;20010;-55
2023/08/05 06:22:34;;;;;;;0.10;0.10;;;;;;;14.35;79.67;99879.91;7357251;19;20011;-57
2023/08/05 06:24:59;;;;;;;0.00;0.00;;;;;;;14.35;79.19;99885.16;7357463;19;20014;-58
2023/08/05 06:27:24;;;;;;;0.10;0.10;;;;;;;14.33;79.23;99911.50;7360625;19;20033;-58
2023/08/05 06:29:50;;;;;;;0.10;0.10;;;;;;;14.32;79.30;99917.69;7355900;19;20007;-56
2023/08/05 06:32:15;;;;;;;0.10;0.10;;;;;;;14.28;79.37;99916.13;7358485;19;20453;-57
2023/08/05 06:34:41;;;;;;;0.10;0.10;;;;;;;14.30;79.60;99939.72;7356389;19;20718;-57
2023/08/05 06:37:06;;;;;;;0.10;0.10;;;;;;;14.28;79.87;99945.88;7357044;19;20023;-57
2023/08/05 06:39:35;;;;;;;0.00;0.00;;;;;;;14.17;78.86;99935.06;7358774;19;20034;-56
2023/08/05 06:42:00;;;;;;;0.00;0.00;;;;;;;14.25;78.26;99969.66;7357540;19;20039;-56
2023/08/05 06:44:26;;;;;;;0.00;0.00;;;;;;;14.23;78.82;99965.41;7360882;19;20041;-57
2023/08/05 06:46:52;;;;;;;0.00;0.00;;;;;;;14.21;78.69;99973.38;7356129;19;20458;-54
2023/08/05 06:49:17;;;;;;;0.08;0.08;;;;;;;14.17;79.16;99987.56;7354523;19;20002;-57
2023/08/05 06:51:42;;;;;;;0.00;0.00;;;;;;;14.14;79.44;99982.50;7360680;19;20030;-57
2023/08/05 06:54:10;;;;;;;0.08;0.08;;;;;;;14.13;79.56;100009.66;7356479;19;20111;-57
2023/08/05 06:56:36;;;;;;;0.00;0.00;;;;;;;14.10;79.19;100006.34;7357360;19;20011;-56
2023/08/05 06:59:02;;;;;;;0.00;0.00;;;;;;;14.10;79.51;100022.09;7358534;19;20045;-56
2023/08/05 07:01:27;;;;;;;0.00;0.00;;;;;;;13.99;79.68;100014.72;7358349;19;20018;-57
2023/08/05 07:03:52;;;;;;;0.00;0.00;;;;;;;14.06;79.92;100031.88;7355208;19;20029;-57
2023/08/05 07:06:18;;;;;;;0.10;0.10;;;;;;;14.03;79.55;100034.63;7357707;19;20031;-54
2023/08/05 07:08:43;;;;;;;0.00;0.00;;;;;;;14.05;80.07;100039.84;7356704;19;20014;-57
2023/08/05 07:11:09;;;;;;;0.00;0.00;;;;;;;14.04;80.22;100049.50;7356209;19;20015;-58
2023/08/05 07:13:34;;;;;;;0.00;0.00;;;;;;;14.04;80.18;100052.13;7353781;19;20022;-56
2023/08/05 07:16:01;;;;;;;0.00;0.00;;;;;;;14.04;80.44;100054.75;7357468;19;20018;-57
2023/08/05 07:18:26;;;;;;;0.00;0.00;;;;;;;14.06;80.02;100066.00;7354667;19;20022;-56
2023/08/05 07:20:52;;;;;;;0.10;0.10;;;;;;;14.05;80.39;100072.19;7351799;19;20682;-56
2023/08/05 07:23:17;;;;;;;0.00;0.00;;;;;;;14.09;80.19;100083.38;7356885;19;20018;-57
2023/08/05 07:25:43;;;;;;;0.00;0.00;;;;;;;14.11;80.32;100090.28;7356724;19;20021;-56
2023/08/05 07:28:08;;;;;;;0.10;0.10;;;;;;;14.13;80.30;100096.28;7355975;19;20014;-56
2023/08/05 07:30:34;;;;;;;0.00;0.00;;;;;;;14.16;80.61;100096.16;7352805;19;20014;-57
2023/08/05 07:32:59;;;;;;;0.10;0.10;;;;;;;14.19;80.61;100106.53;7356878;19;20043;-56
2023/08/05 07:35:28;;;;;;;0.10;0.10;;;;;;;14.23;80.58;100117.72;7358188;19;20014;-57
2023/08/05 07:37:55;;;;;;;0.10;0.10;;;;;;;14.26;80.33;100123.69;7354920;19;20124;-58
2023/08/05 07:40:22;;;;;;;0.00;0.00;;;;;;;14.30;80.13;100134.06;7356600;19;20235;-57
2023/08/05 07:42:49;;;;;;;0.00;0.00;;;;;;;14.34;80.41;100138.22;7355321;19;20025;-56
2023/08/05 07:45:17;;;;;;;0.10;0.10;;;;;;;14.33;80.17;100152.28;7357233;19;20842;-57
2023/08/05 07:47:44;;;;;;;0.00;0.00;;;;;;;14.40;80.49;100159.81;7353606;19;20038;-55
2023/08/05 07:50:10;;;;;;;0.10;0.10;;;;;;;14.43;80.55;100161.44;7337009;19;20015;-54
2023/08/05 07:52:39;;;;;;;0.10;0.10;;;;;;;14.46;80.20;100177.06;7350806;19;20049;-57
2023/08/05 07:55:04;;;;;;;0.00;0.00;;;;;;;14.48;80.57;100186.59;7355689;19;20014;-56
2023/08/05 07:57:30;;;;;;;0.00;0.00;;;;;;;14.50;80.16;100189.16;7353907;19;20884;-55
2023/08/05 07:59:56;;;;;;;0.10;0.10;;;;;;;14.54;80.17;100203.84;7351596;19;20018;-56
2023/08/05 08:02:22;;;;;;;0.10;0.10;;;;;;;14.56;80.34;100215.16;7356381;19;20019;-55
2023/08/05 08:04:49;;;;;;;0.00;0.00;;;;;;;14.46;80.27;100198.94;7352895;19;20459;-57
2023/08/05 08:07:14;;;;;;;0.00;0.00;;;;;;;14.62;80.42;100235.88;7353257;19;20014;-58
2023/08/05 08:09:40;;;;;;;0.10;0.10;;;;;;;14.65;80.27;100243.63;7356535;19;20038;-57
2023/08/05 08:12:06;;;;;;;0.00;0.00;;;;;;;14.56;80.09;100222.19;7356152;19;20041;-57
2023/08/05 08:14:31;;;;;;;0.10;0.10;;;;;;;14.70;80.29;100239.00;7355074;19;20010;-58
2023/08/05 08:16:57;;;;;;;0.10;0.10;;;;;;;14.74;80.32;100245.81;7348245;19;20026;-57
2023/08/05 08:19:23;;;;;;;0.10;0.10;;;;;;;14.77;80.16;100250.06;7355087;19;20022;-56
2023/08/05 08:21:48;;;;;;;0.10;0.10;;;;;;;14.67;80.21;100238.28;7354082;19;20343;-57
2023/08/05 08:24:14;;;;;;;0.10;0.10;;;;;;;14.84;80.27;100256.75;7357840;19;20006;-56
2023/08/05 08:26:39;;;;;;;0.10;0.10;;;;;;;14.85;80.18;100250.59;7354089;19;20090;-57
2023/08/05 08:29:05;;;;;;;0.10;0.10;;;;;;;14.89;79.93;100252.13;7357352;19;20013;-57
2023/08/05 08:31:31;;;;;;;0.10;0.10;;;;;;;14.96;79.98;100265.84;7353584;19;20018;-55
2023/08/05 08:33:57;;;;;;;0.10;0.10;;;;;;;14.89;79.93;100254.75;7357392;19;20132;-57
2023/08/05 08:36:23;;;;;;;0.08;0.08;;;;;;;15.03;79.69;100283.00;7356102;19;20078;-58
2023/08/05 08:38:49;;;;;;;0.00;0.00;;;;;;;15.07;80.04;100295.09;7357350;19;20034;-55
2023/08/05 08:41:14;;;;;;;0.10;0.10;;;;;;;15.12;79.89;100302.78;7331774;19;20006;-57
2023/08/05 08:43:42;;;;;;;0.00;0.00;;;;;;;15.18;80.17;100313.84;7352174;19;20014;-57
2023/08/05 08:46:09;;;;;;;0.10;0.10;;;;;;;15.26;79.80;100316.97;7350959;19;20006;-56
2023/08/05 08:48:38;;;;;;;0.10;0.10;;;;;;;15.39;79.72;100319.84;7355268;19;20054;-58
2023/08/05 08:51:07;;;;;;;0.00;0.00;;;;;;;15.52;79.91;100328.00;7349739;19;22736;-58
2023/08/05 08:53:33;;;;;;;0.10;0.10;;;;;;;15.64;79.73;100337.09;7342415;19;20017;-58
2023/08/05 08:55:58;;;;;;;0.00;0.00;;;;;;;15.77;79.45;100343.47;7347711;19;20010;-57
2023/08/05 08:58:23;;;;;;;0.08;0.08;;;;;;;15.89;79.08;100348.09;7353390;19;20740;-58
2023/08/05 09:00:50;;;;;;;0.10;0.10;;;;;;;16.07;79.16;100351.59;7356109;19;20029;-57
2023/08/05 09:03:17;;;;;;;0.00;0.00;;;;;;;16.27;78.91;100364.59;7350073;19;20021;-58
2023/08/05 09:05:49;;;;;;;0.00;0.00;;;;;;;16.36;78.80;100355.34;7351443;19;20018;-58
2023/08/05 09:08:15;;;;;;;0.00;0.00;;;;;;;16.60;78.65;100371.66;7351322;19;20015;-58
2023/08/05 09:10:43;;;;;;;0.10;0.10;;;;;;;16.77;77.99;100374.28;7352941;19;20021;-57
2023/08/05 09:13:09;;;;;;;0.10;0.10;;;;;;;16.90;77.74;100389.47;7351128;19;20021;-58
2023/08/05 09:15:38;;;;;;;0.10;0.10;;;;;;;17.04;77.73;100397.50;7345411;19;20011;-56
2023/08/05 09:18:05;;;;;;;0.10;0.10;;;;;;;17.09;77.68;100401.56;7352122;19;20011;-58
2023/08/05 09:20:35;;;;;;;0.10;0.10;;;;;;;17.07;77.61;100387.59;7348115;19;21249;-55
2023/08/05 09:23:03;;;;;;;0.10;0.10;;;;;;;17.21;76.97;100404.47;7350967;19;20029;-58
2023/08/05 09:25:30;;;;;;;0.10;0.10;;;;;;;17.07;76.94;100386.75;7351838;19;20021;-58
2023/08/05 09:27:56;;;;;;;0.10;0.10;;;;;;;17.24;77.51;100410.44;7349592;19;20573;-58
2023/08/05 09:30:24;;;;;;;0.10;0.10;;;;;;;17.26;77.35;100413.84;7352514;19;20006;-58
2023/08/05 09:32:51;;;;;;;0.03;0.03;;;;;;;17.28;76.99;100417.22;7351399;19;20780;-58
2023/08/05 09:35:17;;;;;;;0.10;0.10;;;;;;;17.29;77.29;100424.25;7351097;19;20030;-58
2023/08/05 09:37:51;;;;;;;0.00;0.00;;;;;;;17.34;77.17;100438.03;7352764;19;21540;-58
2023/08/05 09:40:21;;;;;;;0.10;0.10;;;;;;;17.21;77.12;100430.88;7353465;19;20121;-58
2023/08/05 09:42:51;;;;;;;0.10;0.10;;;;;;;17.27;77.04;100451.63;7349228;19;20366;-58
2023/08/05 09:45:18;;;;;;;0.10;0.10;;;;;;;17.24;77.18;100454.47;7351506;19;20025;-58
2023/08/05 09:47:47;;;;;;;0.10;0.10;;;;;;;17.19;77.25;100454.72;7349921;19;20018;-58
2023/08/05 09:50:14;;;;;;;0.10;0.10;;;;;;;17.17;77.38;100467.09;7353042;19;20018;-58
2023/08/05 09:52:40;;;;;;;0.10;0.10;;;;;;;17.14;77.54;100483.13;7353443;19;20030;-58
2023/08/05 09:55:11;;;;;;;0.10;0.10;;;;;;;17.15;77.39;100484.81;7351433;19;20048;-58
2023/08/05 09:57:37;;;;;;;0.10;0.10;;;;;;;17.11;77.31;100483.28;7348864;19;20735;-58
2023/08/05 10:00:08;;;;;;;0.10;0.10;;;;;;;17.09;77.63;100490.44;7353953;19;20025;-58
2023/08/05 10:02:35;;;;;;;0.10;0.10;;;;;;;17.07;77.69;100493.13;7353406;19;20110;-58
2023/08/05 10:05:02;;;;;;;0.10;0.10;;;;;;;17.07;77.62;100502.84;7354239;19;20026;-56
2023/08/05 10:07:28;;;;;;;0.03;0.03;;;;;;;17.01;77.80;100487.34;7350779;19;20094;-57
2023/08/05 10:09:54;;;;;;;0.00;0.00;;;;;;;17.14;78.19;100504.25;7355544;19;20481;-58
2023/08/05 10:12:34;;;;;;;0.08;0.08;;;;;;;17.26;77.94;100508.84;7327696;19;20010;-58
2023/08/05 10:15:00;;;;;;;0.10;0.10;;;;;;;17.20;78.10;100495.97;7350398;19;20010;-58
2023/08/05 10:17:27;;;;;;;0.10;0.10;;;;;;;17.32;77.64;100516.44;7349529;19;20478;-58
2023/08/05 10:19:53;;;;;;;0.10;0.10;;;;;;;17.34;77.64;100522.50;7349344;19;20049;-57
2023/08/05 10:22:25;;;;;;;0.10;0.10;;;;;;;17.41;77.61;100515.09;7349492;19;20662;-58
2023/08/05 10:24:56;;;;;;;0.00;0.00;;;;;;;17.41;77.72;100520.38;7361040;19;20017;-58
2023/08/05 10:27:43;;;;;;;0.00;0.00;;;;;;;17.51;77.51;100523.38;7357241;19;20431;-58
2023/08/05 10:30:14;;;;;;;0.10;0.10;;;;;;;17.57;78.20;100525.66;7358731;19;20036;-58
2023/08/05 10:32:48;;;;;;;0.10;0.10;;;;;;;17.71;78.07;100530.19;7354393;19;20424;-58
2023/08/05 10:35:27;;;;;;;0.10;0.10;;;;;;;17.78;78.39;100513.94;7356829;19;20018;-58
2023/08/05 10:38:33;;;;;;;0.08;0.08;;;;;;;18.11;78.23;100518.28;7357852;19;20027;-58
2023/08/05 10:41:03;;;;;;;0.10;0.10;;;;;;;18.34;77.32;100525.75;7255419;19;2004339;-58
2023/08/05 10:43:31;;;;;;;0.10;0.10;;;;;;;18.69;77.68;100525.50;7359293;19;20034;-58
2023/08/05 10:46:06;;;;;;;0.10;0.10;;;;;;;18.96;76.77;100524.78;7355294;19;20485;-58
2023/08/05 10:48:34;;;;;;;0.10;0.10;;;;;;;19.21;76.41;100537.38;7357479;19;20508;-58
2023/08/05 10:51:12;;;;;;;0.10;0.10;;;;;;;19.39;76.24;100539.75;7355532;19;20349;-57
2023/08/05 10:53:39;;;;;;;0.10;0.10;;;;;;;19.33;75.36;100534.84;7358993;19;20446;-58
2023/08/05 10:56:11;;;;;;;0.10;0.10;;;;;;;19.50;75.44;100548.84;7356431;19;20381;-57
2023/08/05 10:58:44;;;;;;;0.10;0.10;;;;;;;19.51;75.33;100535.50;7356595;19;20059;-58
2023/08/05 11:01:10;;;;;;;0.10;0.10;;;;;;;19.55;75.36;100537.00;7354359;19;20026;-58
2023/08/05 11:03:42;;;;;;;0.10;0.10;;;;;;;19.68;75.72;100539.78;7359331;19;20523;-58
2023/08/05 11:06:09;;;;;;;0.10;0.10;;;;;;;19.77;75.41;100525.97;7357307;19;20016;-58
2023/08/05 11:08:36;;;;;;;0.10;0.10;;;;;;;20.02;75.22;100543.78;7357577;19;20022;-58
2023/08/05 11:11:04;;;;;;;0.10;0.10;;;;;;;20.24;74.71;100545.03;7356756;19;20015;-59
2023/08/05 11:13:44;;;;;;;0.10;0.10;;;;;;;20.58;75.74;100549.84;7359659;19;20900;-58
2023/08/05 11:16:12;;;;;;;0.10;0.10;;;;;;;20.79;74.04;100562.63;7360468;19;20102;-58
2023/08/05 11:18:42;;;;;;;0.00;0.00;;;;;;;21.07;74.13;100561.59;7356827;19;20635;-59
2023/08/05 11:21:10;;;;;;;0.10;0.10;;;;;;;21.21;72.61;100564.16;7359124;19;20593;-56
2023/08/05 11:23:37;;;;;;;0.10;0.10;;;;;;;21.35;71.97;100566.75;7358736;19;20017;-58
2023/08/05 11:26:04;;;;;;;0.10;0.10;;;;;;;21.53;71.86;100561.94;7358092;19;20475;-58